createdAt,value
2023-03-05T00:01:23.037Z,1.57
2023-03-05T00:03:52.413Z,1.37
2023-03-05T00:06:20.883Z,1.23
2023-03-05T00:08:49.399Z,1.87
2023-03-05T00:11:16.891Z,3.83
2023-03-05T00:13:44.036Z,1.47
2023-03-05T00:16:15.140Z,1.77
2023-03-05T00:18:42.688Z,1.20
2023-03-05T00:21:33.765Z,1.63
2023-03-05T00:24:02.575Z,2.55
2023-03-05T00:26:31.052Z,4.33
2023-03-05T00:28:59.156Z,1.50
2023-03-05T00:31:32.017Z,2.13
2023-03-05T00:34:01.157Z,1.95
2023-03-05T00:36:28.817Z,0.70
2023-03-05T00:38:56.190Z,0.60
2023-03-05T00:41:23.470Z,1.20
2023-03-05T00:43:50.557Z,2.55
2023-03-05T00:46:17.712Z,2.05
2023-03-05T00:48:44.924Z,0.77
2023-03-05T00:51:12.249Z,1.17
2023-03-05T00:53:39.410Z,1.03
2023-03-05T00:56:07.047Z,2.17
2023-03-05T00:58:34.276Z,2.10
2023-03-05T01:01:02.966Z,1.23
2023-03-05T01:03:34.190Z,1.70
2023-03-05T01:06:04.609Z,1.30
2023-03-05T01:08:32.281Z,2.80
2023-03-05T01:10:59.486Z,1.20
2023-03-05T01:13:26.690Z,6.47
2023-03-05T01:15:54.016Z,1.13
2023-03-05T01:18:23.550Z,1.10
2023-03-05T01:20:51.298Z,2.17
2023-03-05T01:23:18.547Z,1.87
2023-03-05T01:25:45.704Z,1.23
2023-03-05T01:28:13.369Z,1.50
2023-03-05T01:30:40.559Z,2.93
2023-03-05T01:33:07.643Z,0.50
2023-03-05T01:35:34.795Z,1.47
2023-03-05T01:38:01.908Z,2.47
2023-03-05T01:40:47.459Z,0.60
2023-03-05T01:43:14.479Z,3.00
2023-03-05T01:46:19.147Z,0.30
2023-03-05T01:48:50.369Z,1.50
2023-03-05T01:51:20.512Z,1.87
2023-03-05T01:53:47.931Z,1.30
2023-03-05T01:56:16.130Z,2.20
2023-03-05T01:58:44.258Z,1.23
2023-03-05T02:01:11.382Z,2.53
2023-03-05T02:03:39.159Z,2.17
2023-03-05T02:06:06.302Z,1.47
2023-03-05T02:08:33.403Z,1.10
2023-03-05T02:11:02.232Z,2.77
2023-03-05T02:13:35.842Z,1.20
2023-03-05T02:16:03.525Z,1.03
2023-03-05T02:18:31.019Z,0.83
2023-03-05T02:20:58.060Z,2.27
2023-03-05T02:23:28.726Z,1.50
2023-03-05T02:25:56.268Z,3.40
2023-03-05T02:28:30.298Z,2.10
2023-03-05T02:30:57.648Z,0.87
2023-03-05T02:33:24.822Z,1.57
2023-03-05T02:35:52.763Z,3.50
2023-03-05T02:38:20.745Z,1.60
2023-03-05T02:40:47.951Z,0.57
2023-03-05T02:43:16.620Z,1.63
2023-03-05T02:45:43.759Z,2.67
2023-03-05T02:48:10.914Z,2.60
2023-03-05T02:50:39.895Z,1.80
2023-03-05T02:53:07.846Z,0.60
2023-03-05T02:55:35.266Z,1.53
2023-03-05T02:58:02.711Z,1.40
2023-03-05T03:00:29.860Z,0.97
2023-03-05T03:02:57.067Z,1.40
2023-03-05T03:05:24.653Z,1.43
2023-03-05T03:07:52.116Z,2.97
2023-03-05T03:10:19.257Z,1.80
2023-03-05T03:12:46.461Z,1.87
2023-03-05T03:15:16.477Z,2.00
2023-03-05T03:17:43.741Z,1.57
2023-03-05T03:20:14.511Z,1.40
2023-03-05T03:22:42.712Z,1.15
2023-03-05T03:25:11.148Z,1.33
2023-03-05T03:27:38.302Z,5.23
2023-03-05T03:30:06.046Z,0.90
2023-03-05T03:32:33.838Z,1.90
2023-03-05T03:35:00.988Z,3.07
2023-03-05T03:37:28.109Z,0.87
2023-03-05T03:39:55.158Z,3.60
2023-03-05T03:42:23.646Z,0.83
2023-03-05T03:44:51.052Z,4.23
2023-03-05T03:47:18.829Z,0.87
2023-03-05T03:49:45.872Z,1.30
2023-03-05T03:52:12.937Z,0.80
2023-03-05T03:54:40.153Z,2.00
2023-03-05T03:57:07.296Z,2.47
2023-03-05T03:59:34.395Z,1.83
2023-03-05T04:02:01.509Z,1.60
2023-03-05T04:04:30.439Z,1.27
2023-03-05T04:06:57.954Z,1.77
2023-03-05T04:09:25.185Z,1.80
2023-03-05T04:11:52.315Z,1.03
2023-03-05T04:14:19.494Z,1.80
2023-03-05T04:16:46.660Z,0.60
2023-03-05T04:19:13.755Z,1.20
2023-03-05T04:21:40.760Z,2.73
2023-03-05T04:24:08.798Z,1.63
2023-03-05T04:26:36.096Z,1.73
2023-03-05T04:29:03.147Z,2.07
2023-03-05T04:31:30.317Z,2.53
2023-03-05T04:33:57.451Z,1.10
2023-03-05T04:36:24.622Z,3.27
2023-03-05T04:38:51.699Z,2.20
2023-03-05T04:41:18.851Z,1.90
2023-03-05T04:43:45.896Z,1.83
2023-03-05T04:46:13.050Z,3.73
2023-03-05T04:48:40.776Z,1.60
2023-03-05T04:51:07.856Z,2.77
2023-03-05T04:53:35.540Z,1.37
2023-03-05T04:56:02.683Z,4.43
2023-03-05T04:58:29.858Z,2.77
2023-03-05T05:01:05.473Z,2.50
2023-03-05T05:03:33.638Z,1.47
2023-03-05T05:06:01.424Z,0.83
2023-03-05T05:08:29.702Z,1.23
2023-03-05T05:11:02.372Z,2.43
2023-03-05T05:13:30.315Z,1.47
2023-03-05T05:15:58.184Z,3.47
2023-03-05T05:18:25.957Z,1.67
2023-03-05T05:20:55.315Z,2.60
2023-03-05T05:23:22.580Z,1.23
2023-03-05T05:26:00.501Z,2.50
2023-03-05T05:28:28.543Z,0.63
2023-03-05T05:30:56.032Z,2.60
2023-03-05T05:33:23.819Z,2.30
2023-03-05T05:35:51.561Z,1.37
2023-03-05T05:38:19.004Z,1.57
2023-03-05T05:40:46.157Z,1.20
2023-03-05T05:43:13.381Z,2.47
2023-03-05T05:45:40.620Z,3.67
2023-03-05T05:48:07.991Z,3.93
2023-03-05T05:50:35.082Z,0.90
2023-03-05T05:53:02.263Z,0.40
2023-03-05T05:55:29.348Z,2.80
2023-03-05T05:57:56.775Z,2.30
2023-03-05T06:00:24.062Z,2.53
2023-03-05T06:02:51.306Z,3.03
2023-03-05T06:05:19.689Z,1.73
2023-03-05T06:07:46.870Z,2.17
2023-03-05T06:10:14.166Z,2.03
2023-03-05T06:12:41.350Z,0.70
2023-03-05T06:15:08.914Z,1.50
2023-03-05T06:17:35.997Z,3.30
2023-03-05T06:20:04.522Z,3.20
2023-03-05T06:22:31.841Z,1.90
2023-03-05T06:24:58.904Z,4.53
2023-03-05T06:27:25.964Z,1.33
2023-03-05T06:29:54.497Z,0.90
2023-03-05T06:32:21.632Z,3.47
2023-03-05T06:34:49.600Z,2.10
2023-03-05T06:37:16.938Z,1.90
2023-03-05T06:39:44.746Z,2.53
2023-03-05T06:42:12.088Z,3.63
2023-03-05T06:44:42.114Z,1.50
2023-03-05T06:47:10.680Z,2.20
2023-03-05T06:49:39.180Z,3.80
2023-03-05T06:52:10.182Z,4.57
2023-03-05T06:54:37.288Z,4.55
2023-03-05T06:57:04.556Z,4.30
2023-03-05T06:59:31.624Z,2.27
2023-03-05T07:01:58.689Z,0.90
2023-03-05T07:04:28.940Z,1.57
2023-03-05T07:06:56.070Z,5.45
2023-03-05T07:09:23.324Z,3.17
2023-03-05T07:11:50.502Z,4.20
2023-03-05T07:14:17.627Z,2.67
2023-03-05T07:16:44.720Z,2.63
2023-03-05T07:19:11.948Z,4.63
2023-03-05T07:21:40.135Z,4.57
2023-03-05T07:24:09.037Z,5.33
2023-03-05T07:26:36.631Z,2.13
2023-03-05T07:29:04.325Z,3.00
2023-03-05T07:31:32.317Z,4.47
2023-03-05T07:34:01.446Z,3.23
2023-03-05T07:36:29.168Z,2.80
2023-03-05T07:38:56.376Z,7.40
2023-03-05T07:41:23.892Z,6.73
2023-03-05T07:43:53.397Z,3.13
2023-03-05T07:46:25.476Z,2.37
2023-03-05T07:48:54.758Z,8.80
2023-03-05T07:51:23.223Z,4.20
2023-03-05T07:53:51.469Z,10.00
2023-03-05T07:56:32.040Z,8.95
2023-03-05T07:59:01.462Z,4.80
2023-03-05T08:01:33.383Z,6.40
2023-03-05T08:04:02.901Z,0.57
2023-03-05T08:06:30.853Z,6.30
2023-03-05T08:08:58.713Z,4.13
2023-03-05T08:11:26.329Z,2.60
2023-03-05T08:13:53.378Z,6.70
2023-03-05T08:16:22.152Z,7.38
2023-03-05T08:18:49.336Z,3.33
2023-03-05T08:21:22.281Z,7.67
2023-03-05T08:23:49.576Z,5.65
2023-03-05T08:26:20.753Z,3.17
2023-03-05T08:28:48.394Z,7.20
2023-03-05T08:31:17.132Z,2.93
2023-03-05T08:33:44.429Z,6.10
2023-03-05T08:36:11.678Z,2.17
2023-03-05T08:38:39.105Z,4.43
2023-03-05T08:41:06.715Z,6.22
2023-03-05T08:43:34.647Z,3.10
2023-03-05T08:46:03.361Z,3.03
2023-03-05T08:48:31.858Z,3.47
2023-03-05T08:51:05.481Z,2.95
2023-03-05T08:53:32.683Z,1.05
2023-03-05T08:56:00.542Z,3.22
2023-03-05T08:58:29.074Z,5.32
2023-03-05T09:00:56.597Z,5.78
2023-03-05T09:03:23.818Z,5.47
2023-03-05T09:05:51.641Z,8.77
2023-03-05T09:08:19.721Z,7.85
2023-03-05T09:10:47.379Z,4.43
2023-03-05T09:13:14.487Z,11.40
2023-03-05T09:15:41.670Z,5.50
2023-03-05T09:18:09.296Z,6.70
2023-03-05T09:20:36.804Z,2.63
2023-03-05T09:23:04.080Z,10.63
2023-03-05T09:25:31.327Z,5.40
2023-03-05T09:27:58.403Z,1.80
2023-03-05T09:30:25.590Z,4.97
2023-03-05T09:32:52.870Z,5.47
2023-03-05T09:35:20.008Z,1.17
2023-03-05T09:37:47.084Z,8.90
2023-03-05T09:40:18.270Z,1.35
2023-03-05T09:43:05.681Z,3.57
2023-03-05T09:45:44.684Z,3.75
2023-03-05T09:48:39.223Z,0.70
2023-03-05T09:51:15.623Z,3.25
2023-03-05T09:53:54.640Z,3.13
2023-03-05T09:56:29.583Z,10.13
2023-03-05T09:59:05.757Z,8.52
2023-03-05T10:01:42.875Z,1.52
2023-03-05T10:04:24.284Z,2.22
2023-03-05T10:07:15.401Z,3.47
2023-03-05T10:12:12.559Z,4.57
2023-03-05T10:14:41.572Z,4.05
2023-03-05T10:17:28.359Z,6.60
2023-03-05T10:20:34.105Z,5.63
2023-03-05T10:23:37.743Z,7.43
2023-03-05T10:26:19.685Z,8.25
2023-03-05T10:29:03.965Z,7.72
2023-03-05T10:31:42.082Z,4.00
2023-03-05T10:34:12.007Z,4.68
2023-03-05T10:37:16.260Z,1.25
2023-03-05T10:39:55.202Z,3.58
2023-03-05T10:42:37.296Z,7.68
2023-03-05T10:45:17.213Z,2.03
2023-03-05T10:48:07.722Z,2.33
2023-03-05T10:51:00.424Z,9.32
2023-03-05T10:54:01.214Z,10.20
2023-03-05T10:56:29.599Z,10.15
2023-03-05T10:58:56.705Z,4.60
2023-03-05T11:01:37.610Z,4.35
2023-03-05T11:06:42.378Z,5.00
2023-03-05T11:09:21.454Z,5.55
2023-03-05T11:12:18.543Z,3.25
2023-03-05T11:15:04.603Z,2.75
2023-03-05T11:17:33.281Z,3.53
2023-03-05T11:20:28.735Z,3.97
2023-03-05T11:23:19.205Z,3.55
2023-03-05T11:26:16.608Z,5.07
2023-03-05T11:28:52.784Z,1.08
2023-03-05T11:31:25.822Z,4.53
2023-03-05T11:34:21.176Z,3.67
2023-03-05T11:36:51.110Z,6.82
2023-03-05T11:39:21.095Z,1.25
2023-03-05T11:42:01.336Z,2.50
2023-03-05T11:44:54.151Z,4.32
2023-03-05T11:47:21.300Z,6.43
2023-03-05T11:49:54.603Z,6.07
2023-03-05T11:52:31.261Z,6.13
2023-03-05T11:55:22.640Z,8.60
2023-03-05T11:58:09.162Z,10.05
2023-03-05T12:00:38.669Z,10.05
2023-03-05T12:03:13.493Z,11.05
2023-03-05T12:05:44.831Z,10.15
2023-03-05T12:08:34.563Z,9.00
2023-03-05T12:11:07.234Z,4.43
2023-03-05T12:13:42.315Z,7.53
2023-03-05T12:16:28.636Z,7.63
2023-03-05T12:19:30.828Z,5.18
2023-03-05T12:21:58.688Z,4.13
2023-03-05T12:24:28.111Z,9.10
2023-03-05T12:27:04.278Z,2.72
2023-03-05T12:29:51.183Z,7.47
2023-03-05T12:32:31.667Z,1.27
2023-03-05T12:34:58.803Z,2.00
2023-03-05T12:37:26.087Z,3.78
2023-03-05T12:40:19.422Z,2.25
2023-03-05T12:42:53.787Z,3.53
2023-03-05T12:45:29.904Z,1.40
2023-03-05T12:47:57.008Z,5.43
2023-03-05T12:50:27.131Z,6.53
2023-03-05T12:52:55.012Z,7.40
2023-03-05T12:55:37.119Z,5.13
2023-03-05T12:58:13.005Z,9.30
2023-03-05T13:00:46.050Z,7.15
2023-03-05T13:03:19.488Z,4.22
2023-03-05T13:05:52.315Z,1.40
2023-03-05T13:08:26.330Z,5.32
2023-03-05T13:10:57.236Z,2.15
2023-03-05T13:13:26.713Z,2.55
2023-03-05T13:15:54.449Z,3.08
2023-03-05T13:18:26.002Z,3.63
2023-03-05T13:21:07.814Z,14.40
2023-03-05T13:23:35.897Z,4.80
2023-03-05T13:26:12.396Z,6.55
2023-03-05T13:28:40.180Z,4.72
2023-03-05T13:31:21.407Z,6.55
2023-03-05T13:33:54.808Z,0.55
2023-03-05T13:36:24.799Z,1.77
2023-03-05T13:38:53.340Z,7.03
2023-03-05T13:41:26.940Z,3.20
2023-03-05T13:43:59.784Z,9.20
2023-03-05T13:46:31.750Z,2.63
2023-03-05T13:49:18.118Z,2.40
2023-03-05T13:51:48.855Z,2.40
2023-03-05T13:54:17.868Z,1.45
2023-03-05T13:56:59.872Z,2.30
2023-03-05T13:59:31.262Z,3.97
2023-03-05T14:02:06.102Z,3.27
2023-03-05T14:04:37.779Z,3.10
2023-03-05T14:07:09.260Z,2.03
2023-03-05T14:09:39.080Z,2.95
2023-03-05T14:12:22.225Z,4.90
2023-03-05T14:14:49.756Z,6.17
2023-03-05T14:17:42.484Z,6.05
2023-03-05T14:20:23.538Z,1.00
2023-03-05T14:22:56.979Z,5.53
2023-03-05T14:25:39.803Z,0.63
2023-03-05T14:28:16.186Z,1.20
2023-03-05T14:30:52.716Z,2.77
2023-03-05T14:33:29.849Z,5.97
2023-03-05T14:36:00.324Z,1.45
2023-03-05T14:38:33.789Z,2.60
2023-03-05T14:41:40.861Z,4.87
2023-03-05T14:44:16.609Z,3.10
2023-03-05T14:46:48.319Z,1.90
2023-03-05T14:49:15.934Z,0.40
2023-03-05T14:51:45.662Z,4.47
2023-03-05T14:54:22.419Z,5.13
2023-03-05T14:56:50.139Z,0.68
2023-03-05T14:59:22.471Z,3.60
2023-03-05T15:01:51.136Z,5.97
2023-03-05T15:04:19.999Z,1.60
2023-03-05T15:06:51.099Z,5.33
2023-03-05T15:09:19.911Z,3.30
2023-03-05T15:11:48.828Z,2.23
2023-03-05T15:14:16.061Z,5.87
2023-03-05T15:16:45.707Z,4.53
2023-03-05T15:19:13.944Z,7.72
2023-03-05T15:21:41.687Z,6.05
2023-03-05T15:24:11.191Z,8.67
2023-03-05T15:26:38.709Z,0.87
2023-03-05T15:29:05.854Z,7.63
2023-03-05T15:31:38.739Z,9.87
2023-03-05T15:34:06.991Z,2.13
2023-03-05T15:36:34.074Z,6.30
2023-03-05T15:39:01.219Z,2.13
2023-03-05T15:41:28.410Z,3.73
2023-03-05T15:43:55.612Z,9.35
2023-03-05T15:46:22.820Z,2.43
2023-03-05T15:48:50.411Z,0.83
2023-03-05T15:51:18.093Z,3.92
2023-03-05T15:53:46.517Z,4.93
2023-03-05T15:56:16.915Z,4.27
2023-03-05T15:58:44.379Z,8.43
2023-03-05T16:01:12.890Z,0.50
2023-03-05T16:03:40.101Z,6.25
2023-03-05T16:06:09.325Z,1.20
2023-03-05T16:08:37.787Z,4.57
2023-03-05T16:11:05.702Z,7.33
2023-03-05T16:13:34.584Z,1.63
2023-03-05T16:16:04.872Z,9.02
2023-03-05T16:18:34.827Z,1.25
2023-03-05T16:21:02.443Z,5.22
2023-03-05T16:23:29.765Z,4.28
2023-03-05T16:25:58.678Z,3.95
2023-03-05T16:28:26.762Z,8.23
2023-03-05T16:30:55.337Z,6.38
2023-03-05T16:33:23.258Z,4.65
2023-03-05T16:35:50.655Z,1.08
2023-03-05T16:38:19.282Z,6.10
2023-03-05T16:41:06.827Z,3.70
2023-03-05T16:43:33.632Z,2.63
2023-03-05T16:46:03.764Z,3.37
2023-03-05T16:48:31.347Z,7.93
2023-03-05T16:51:00.233Z,6.32
2023-03-05T16:53:27.423Z,6.53
2023-03-05T16:55:54.519Z,5.93
2023-03-05T16:58:21.548Z,7.27
2023-03-05T17:00:49.147Z,5.13
2023-03-05T17:03:16.493Z,6.50
2023-03-05T17:05:43.581Z,4.10
2023-03-05T17:08:10.834Z,5.75
2023-03-05T17:10:38.014Z,6.22
2023-03-05T17:13:05.154Z,5.05
2023-03-05T17:15:33.464Z,5.75
2023-03-05T17:18:01.124Z,5.35
2023-03-05T17:20:28.513Z,6.00
2023-03-05T17:22:55.635Z,6.03
2023-03-05T17:25:22.730Z,7.00
2023-03-05T17:27:49.842Z,5.90
2023-03-05T17:30:17.264Z,4.57
2023-03-05T17:32:44.397Z,6.60
2023-03-05T17:35:19.373Z,4.88
2023-03-05T17:37:49.396Z,8.00
2023-03-05T17:40:17.408Z,5.37
2023-03-05T17:42:44.621Z,7.55
2023-03-05T17:45:12.350Z,5.10
2023-03-05T17:47:39.755Z,3.75
2023-03-05T17:50:09.292Z,5.53
2023-03-05T17:52:41.324Z,7.10
2023-03-05T17:55:10.844Z,5.70
2023-03-05T17:57:41.590Z,6.37
2023-03-05T18:00:23.857Z,5.22
2023-03-05T18:02:51.627Z,12.00
2023-03-05T18:05:21.534Z,7.55
2023-03-05T18:07:48.783Z,14.23
2023-03-05T18:10:17.487Z,7.32
2023-03-05T18:12:44.756Z,11.63
2023-03-05T18:15:14.832Z,9.50
2023-03-05T18:17:42.438Z,12.77
2023-03-05T18:20:23.930Z,11.90
2023-03-05T18:22:51.035Z,11.17
2023-03-05T18:25:18.271Z,11.00
2023-03-05T18:27:45.361Z,19.43
2023-03-05T18:30:12.846Z,14.32
2023-03-05T18:32:40.323Z,11.03
2023-03-05T18:35:08.085Z,8.17
2023-03-05T18:37:39.979Z,9.48
2023-03-05T18:40:09.808Z,14.20
2023-03-05T18:42:37.479Z,11.27
2023-03-05T18:45:10.449Z,14.07
2023-03-05T18:47:39.212Z,11.60
2023-03-05T18:50:07.485Z,17.05
2023-03-05T18:52:34.638Z,12.75
2023-03-05T18:55:01.725Z,14.85
2023-03-05T18:57:30.271Z,10.73
2023-03-05T18:59:57.390Z,16.15
2023-03-05T19:02:24.679Z,14.05
2023-03-05T19:04:53.173Z,11.05
2023-03-05T19:07:20.354Z,12.15
2023-03-05T19:09:54.820Z,13.25
2023-03-05T19:12:31.956Z,11.68
2023-03-05T19:14:59.729Z,10.70
2023-03-05T19:17:27.153Z,13.88
2023-03-05T19:19:55.435Z,11.90
2023-03-05T19:22:23.304Z,9.65
2023-03-05T19:24:50.566Z,8.35
2023-03-05T19:27:18.906Z,12.45
2023-03-05T19:29:46.162Z,12.30
2023-03-05T19:32:16.109Z,12.48
2023-03-05T19:34:47.469Z,12.20
2023-03-05T19:37:15.291Z,9.52
2023-03-05T19:39:42.713Z,9.98
2023-03-05T19:42:09.888Z,9.52
2023-03-05T19:44:37.014Z,10.40
2023-03-05T19:47:04.160Z,12.68
2023-03-05T19:49:31.404Z,10.63
2023-03-05T19:51:58.573Z,14.10
2023-03-05T19:54:26.054Z,10.48
2023-03-05T19:56:55.705Z,13.40
2023-03-05T19:59:25.156Z,15.65
2023-03-05T20:01:52.577Z,12.93
2023-03-05T20:04:22.775Z,17.63
2023-03-05T20:06:49.932Z,19.90
2023-03-05T20:09:17.394Z,12.98
2023-03-05T20:11:45.028Z,16.77
2023-03-05T20:14:15.290Z,14.53
2023-03-05T20:16:43.596Z,11.23
2023-03-05T20:19:16.516Z,16.73
2023-03-05T20:21:44.760Z,13.50
2023-03-05T20:24:15.147Z,14.23
2023-03-05T20:26:43.411Z,18.73
2023-03-05T20:29:11.563Z,14.15
2023-03-05T20:31:39.037Z,13.82
2023-03-05T20:34:12.716Z,16.55
2023-03-05T20:36:40.569Z,14.85
2023-03-05T20:39:08.285Z,13.25
2023-03-05T20:41:37.883Z,19.58
2023-03-05T20:44:05.816Z,11.45
2023-03-05T20:46:36.181Z,13.55
2023-03-05T20:49:04.796Z,12.80
2023-03-05T20:51:38.022Z,13.98
2023-03-05T20:54:11.720Z,10.95
2023-03-05T20:56:39.109Z,11.93
2023-03-05T20:59:09.023Z,15.90
2023-03-05T21:01:38.605Z,12.83
2023-03-05T21:04:07.064Z,13.00
2023-03-05T21:06:34.869Z,9.82
2023-03-05T21:09:02.599Z,10.15
2023-03-05T21:11:29.934Z,8.73
2023-03-05T21:13:57.278Z,11.40
2023-03-05T21:16:27.480Z,10.38
2023-03-05T21:18:57.429Z,11.80
2023-03-05T21:21:25.088Z,10.63
2023-03-05T21:23:52.466Z,10.07
2023-03-05T21:26:19.924Z,12.50
2023-03-05T21:28:47.009Z,13.68
2023-03-05T21:31:20.924Z,9.45
2023-03-05T21:33:49.655Z,10.35
2023-03-05T21:36:18.920Z,12.15
2023-03-05T21:38:49.795Z,13.48
2023-03-05T21:41:18.341Z,12.60
2023-03-05T21:43:45.558Z,12.55
2023-03-05T21:46:13.190Z,13.38
2023-03-05T21:48:40.359Z,13.90
2023-03-05T21:51:09.260Z,12.32
2023-03-05T21:53:36.550Z,13.13
2023-03-05T21:56:35.189Z,12.35
2023-03-05T21:59:03.243Z,13.18
2023-03-05T22:01:30.298Z,14.52
2023-03-05T22:03:57.502Z,12.73
2023-03-05T22:06:24.611Z,15.85
2023-03-05T22:08:51.728Z,14.37
2023-03-05T22:11:20.986Z,12.20
2023-03-05T22:13:48.384Z,10.98
2023-03-05T22:16:26.721Z,13.43
2023-03-05T22:18:54.585Z,15.90
2023-03-05T22:21:26.617Z,15.98
2023-03-05T22:23:57.174Z,13.60
2023-03-05T22:26:26.313Z,10.48
2023-03-05T22:28:53.548Z,11.07
2023-03-05T22:31:23.231Z,13.02
2023-03-05T22:33:50.737Z,13.73
2023-03-05T22:36:18.249Z,11.27
2023-03-05T22:38:45.700Z,13.25
2023-03-05T22:41:15.644Z,8.82
2023-03-05T22:43:45.934Z,10.57
2023-03-05T22:46:19.373Z,12.40
2023-03-05T22:48:46.991Z,13.10
2023-03-05T22:51:14.995Z,11.82
2023-03-05T22:53:44.314Z,10.65
2023-03-05T22:56:17.086Z,10.05
2023-03-05T22:58:44.783Z,9.95
2023-03-05T23:01:18.201Z,9.63
2023-03-05T23:03:45.468Z,9.68
2023-03-05T23:06:12.747Z,9.57
2023-03-05T23:08:39.837Z,11.73
2023-03-05T23:11:09.244Z,12.57
2023-03-05T23:13:36.289Z,10.82
2023-03-05T23:16:03.733Z,11.48
2023-03-05T23:18:31.107Z,11.02
2023-03-05T23:20:58.244Z,10.00
2023-03-05T23:23:25.350Z,11.43
2023-03-05T23:25:53.011Z,10.95
2023-03-05T23:28:20.383Z,8.35
2023-03-05T23:30:47.552Z,9.90
2023-03-05T23:33:17.937Z,10.55
2023-03-05T23:35:56.333Z,9.00
2023-03-05T23:38:24.571Z,9.48
2023-03-05T23:40:54.608Z,8.90
2023-03-05T23:43:24.811Z,9.40
2023-03-05T23:45:56.322Z,7.15
2023-03-05T23:48:25.665Z,9.13
2023-03-05T23:50:53.318Z,9.00
2023-03-05T23:53:23.234Z,12.20
2023-03-05T23:55:50.979Z,11.02
2023-03-05T23:58:20.634Z,7.93
